Quick Links (Output Below):   Max & Min Temps   /   Climate Reports   /   Zone Forecasts
River Forecasts   /   Forestry Forecasts   /   Aviation Forecasts   /   Radars   /   Features

Terminal Aerodrome Forecast (Hot Springs)

Pick a Site:
Arkadelphia | El Dorado | Fayetteville | Fort Smith | Harrison | Highfill | Hot Springs | Jonesboro
Little Rock | Monticello | Mountain Home | Pine Bluff | Texarkana
 Forecast 

KHOT 250208Z 2502/2524 17008KT P6SM VCTS SCT025CB OVC040
      TEMPO 2502/2504 5SM -SHRA BR BKN015
     FM250400 18006KT 6SM -RA BR BKN025 OVC040
     FM250800 18004KT 5SM BR VCSH OVC015
     FM251500 18007KT P6SM VCSH BKN025 OVC050=


 Latest METARs (Observations) 
How to Decode METARs
03Z KHOT 250253Z AUTO 18004KT 10SM SCT011 BKN017 OVC045 22/21 A2995
         RMK AO2 RAE08B20E51 CIG 015V027 SLP135 P0000 60000 T02220206
         53022
         
02Z KHOT 250153Z AUTO 15008KT 8SM -RA BKN016 BKN040 OVC090 22/21 A2992
         RMK AO2 RAB07E20B44 SLP124 P0000 T02220206
         
01Z KHOT 250053Z AUTO 15005KT 10SM SCT019 BKN026 OVC100 23/21 A2990
         RMK AO2 SLP119 T02330206
         
00Z KHOT 242353Z AUTO 18006KT 10SM FEW036 SCT100 24/21 A2988 RMK AO2
         SLP113 60064 T02390206 10272 20206 55007
         
***** Today's Observations (Above) *****


23Z KHOT 242253Z AUTO 20010KT 10SM FEW021 BKN028 BKN036 24/20 A2987
         RMK AO2 SLP107 T02390200
         
22Z KHOT 242153Z AUTO 21007KT 10SM SCT016 BKN060 24/21 A2988 RMK AO2
         RAE25 SLP112 P0000 T02390211
         
21Z KHOT 242053Z AUTO 19007G16KT 140V210 3SM -RA BR FEW029 BKN060
         OVC100 22/21 A2990 RMK AO2 PK WND 20040/2006 WSHFT 1957 LTG
         DSNT N-SE TSB1955E36 SLP120 P0064 60064 T02220206 55007
         
20Z KHOT 241953Z AUTO 14008KT 10SM VCTS -RA FEW036 SCT055 BKN070 26/21
         A2990 RMK AO2 LTG DSNT S-NW RAB48 SLP118 P0000 T02560206
         
19Z KHOT 241853Z AUTO 16008G16KT 10SM FEW027 FEW035 27/20 A2993 RMK
         AO2 SLP127 T02670200
         
18Z KHOT 241753Z AUTO 17010G16KT 10SM FEW025 SCT036 BKN045 27/21 A2997
         RMK AO2 SLP141 T02670206 10267 20228 56006
         
***** Yesterday's Observations (Above) *****


Back to Main Page
http://www.srh.noaa.gov/lzk/qfcst.php

USA.gov is the U.S. government's official web portal to all federal, state and local government web resources and services.